Terminal Aerodrome Forecast
Issued by NWS

Home | Current Version | Previous Version | Text Only | Print | Product List | Glossary On
Versions: 1 2 3 4 5 6 7 8 9 10 11 12 13 14 15 16 17 18 19 20 21 22 23
000
FTUS43 KLSX 272300
TAFUIN
TAF
KUIN 272320Z 2800/2824 32015G25KT P6SM SCT060
     FM280200 32008KT P6SM SKC
     FM280600 32008KT P6SM SCT040
     FM281500 34010G18KT P6SM BKN040=

USA.gov is the U.S. government's official web portal to all federal, state and local government web resources and services.